Podhale (bahama Islands) — C6TX9 — position and weather

sailwx.info

Track history (hours):
 
Tides and Currents Weather Stations Pressure Air Temp Water Temp Dewpoint Dewpoint Depression Visibility Wind Speed Wind Dir Waves Ship Positions

Podhale (bahama Islands)

Last reported at 2017-Mar-13 13:27 UTC. Time now 2017-Mar-23 16:27 UTC.
Position N 22°51' W 021°53'.
Warning: this ship's position is 10 days out of date.

Length 190 m; beam 24 m.

Type: Cargo ship. MMSI: 311831000.

Date/timePositionNaut miles runAvg speedWind from/ knotsBaromVisibWave heightAir tempDewpointWater temp
2017-Mar-13 13:27N 22°51' W 021°53'3411.0
2017-Mar-13 10:23N 23°22' W 021°39'1010.9
2017-Mar-13 09:27N 23°32' W 021°35'3211.1
2017-Mar-13 06:32N 24°02' W 021°22'4310.9
2017-Mar-13 02:33N 24°42' W 021°04'1110.7
2017-Mar-13 01:33N 24°52' W 020°60'8610.6
2017-Mar-12 17:26N 26°12' W 020°25'38811.1
2017-Mar-11 06:33N 32°12' W 017°40'25711.7
2017-Mar-10 08:32N 36°03' W 015°25'5911.1
2017-Mar-10 03:11N 36°56' W 014°50'711.0
2017-Mar-10 02:33N 37°02' W 014°47'1110.8
2017-Mar-10 01:33N 37°12' W 014°41'1110.9
2017-Mar-10 00:33N 37°22' W 014°34'1110.8
2017-Mar-09 23:33N 37°31' W 014°28'1110.8
2017-Mar-09 22:33N 37°41' W 014°22'1111.1
2017-Mar-09 21:33N 37°51' W 014°16'1110.9
2017-Mar-09 20:33N 38°01' W 014°10'  
2017-Mar-06 04:17N 49°49' W 003°26'7 9.8
2017-Mar-06 03:34N 49°52' W 003°17'11 8.9
2017-Mar-06 02:22N 49°58' W 003°02'7 7.3
2017-Mar-06 01:24N 50°00' W 002°52'28 5.7
2017-Mar-05 20:26N 50°09' W 002°10'6 7.1
2017-Mar-05 19:34N 50°10' W 002°00'8 7.7
2017-Mar-05 18:34N 50°12' W 001°49'8 8.3
2017-Mar-05 17:33N 50°14' W 001°36'9 8.6
2017-Mar-05 16:33N 50°17' W 001°24'8 7.3
2017-Mar-05 15:31N 50°19' W 001°12'22 5.5
2017-Mar-05 11:31N 50°24' W 000°39'8 7.9
2017-Mar-05 10:30N 50°27' W 000°27'8 9.0
2017-Mar-05 09:33N 50°29' W 000°14'10 9.9
2017-Mar-05 08:34N 50°32' E 000°01'1110.8
2017-Mar-05 07:33N 50°35' E 000°17'1110.8
2017-Mar-05 06:33N 50°38' E 000°33'1010.0
2017-Mar-05 05:33N 50°43' E 000°47'9 9.1
2017-Mar-05 04:34N 50°48' E 000°59'9 8.8
2017-Mar-05 03:34N 50°52' E 001°11'9 8.6
2017-Mar-05 02:33N 50°58' E 001°22'10 9.7
2017-Mar-05 01:34N 51°05' E 001°32'1111.5
2017-Mar-05 00:33N 51°13' E 001°45'1212.2
2017-Mar-04 23:34N 51°24' E 001°53'1111.2
2017-Mar-04 22:33N 51°33' E 002°05'1210.6
2017-Mar-04 21:28N 51°41' E 002°17'  
Track history (hours):
 
Tides and Currents Weather Stations Pressure Air Temp Water Temp Dewpoint Dewpoint Depression Visibility Wind Speed Wind Dir Waves Ship Positions

Podhale (bahama Islands)

Last reported at 2017-Mar-13 13:27 UTC. Time now 2017-Mar-23 16:27 UTC.
Position N 22°51' W 021°53'.
Warning: this ship's position is 10 days out of date.

Length 190 m; beam 24 m.

Type: Cargo ship. MMSI: 311831000.

Date/timePositionNaut miles runAvg speedWind from/ knotsBaromVisibWave heightAir tempDewpointWater temp
2017-Mar-13 13:27N 22°51' W 021°53'3411.0
2017-Mar-13 10:23N 23°22' W 021°39'1010.9
2017-Mar-13 09:27N 23°32' W 021°35'3211.1
2017-Mar-13 06:32N 24°02' W 021°22'4310.9
2017-Mar-13 02:33N 24°42' W 021°04'1110.7
2017-Mar-13 01:33N 24°52' W 020°60'8610.6
2017-Mar-12 17:26N 26°12' W 020°25'38811.1
2017-Mar-11 06:33N 32°12' W 017°40'25711.7
2017-Mar-10 08:32N 36°03' W 015°25'5911.1
2017-Mar-10 03:11N 36°56' W 014°50'711.0
2017-Mar-10 02:33N 37°02' W 014°47'1110.8
2017-Mar-10 01:33N 37°12' W 014°41'1110.9
2017-Mar-10 00:33N 37°22' W 014°34'1110.8
2017-Mar-09 23:33N 37°31' W 014°28'1110.8
2017-Mar-09 22:33N 37°41' W 014°22'1111.1
2017-Mar-09 21:33N 37°51' W 014°16'1110.9
2017-Mar-09 20:33N 38°01' W 014°10'  
2017-Mar-06 04:17N 49°49' W 003°26'7 9.8
2017-Mar-06 03:34N 49°52' W 003°17'11 8.9
2017-Mar-06 02:22N 49°58' W 003°02'7 7.3
2017-Mar-06 01:24N 50°00' W 002°52'28 5.7
2017-Mar-05 20:26N 50°09' W 002°10'6 7.1
2017-Mar-05 19:34N 50°10' W 002°00'8 7.7
2017-Mar-05 18:34N 50°12' W 001°49'8 8.3
2017-Mar-05 17:33N 50°14' W 001°36'9 8.6
2017-Mar-05 16:33N 50°17' W 001°24'8 7.3
2017-Mar-05 15:31N 50°19' W 001°12'22 5.5
2017-Mar-05 11:31N 50°24' W 000°39'8 7.9
2017-Mar-05 10:30N 50°27' W 000°27'8 9.0
2017-Mar-05 09:33N 50°29' W 000°14'10 9.9
2017-Mar-05 08:34N 50°32' E 000°01'1110.8
2017-Mar-05 07:33N 50°35' E 000°17'1110.8
2017-Mar-05 06:33N 50°38' E 000°33'1010.0
2017-Mar-05 05:33N 50°43' E 000°47'9 9.1
2017-Mar-05 04:34N 50°48' E 000°59'9 8.8
2017-Mar-05 03:34N 50°52' E 001°11'9 8.6
2017-Mar-05 02:33N 50°58' E 001°22'10 9.7
2017-Mar-05 01:34N 51°05' E 001°32'1111.5
2017-Mar-05 00:33N 51°13' E 001°45'1212.2
2017-Mar-04 23:34N 51°24' E 001°53'1111.2
2017-Mar-04 22:33N 51°33' E 002°05'1210.6
2017-Mar-04 21:28N 51°41' E 002°17'  

Dump ship's entire track history